CYHZ

Halifax / Stanfield International Airport

Halifax, Nova Scotia, Canada
METAR CYHZ 231600Z 30006KT 230V330 15SM FEW260 M03/M12 A3062 RMK CI2 PRESFR SLP381
Observed Flight Rules
Feb-23 @ 16:00 UTC (32 minutes ago) Visual Flight Rules
Wind Visibility Clouds
300° at 6 knots 15 miles
  • Few at 26,000' AGL
Temperatures Readings
Current -3°C / 27°F
Dewpoint -12°C / 10°F
Humidity 50%
Altimeter 30.62" Hg
Pressure 1038.1 hPa
Elevation 145
METAR CYHZ 231600Z 30006KT 230V330 15SM FEW260 M03/M12 A3062 RMK CI2 PRESFR SLP381
Observed Flight Rules
Feb-23 @ 16:00 UTC
(32 minutes ago)
VFR
Wind Visibility
300° at 6 knots 15 miles
Clouds
  • Few at 26,000' AGL
Temperature Dewpoint
-3°C / 27°F -12°C / 10°F
Humidity Altimeter Pressure
50% 30.62" Hg 1038.1 hPa